Time;durP1;ratioP1;P1;durP2;ratioP2;P2;SDS_P1;SDS_P2;PMS_P1;PMS_P2;Temp;Humidity;BMP_temperature;BMP_pressure;BME280_temperature;BME280_humidity;BME280_pressure;Samples;Min_cycle;Max_cycle;Signal;HPM_P1;HPM_P2
2024/01/10 00:01:27;;;;;;;3.70;2.10;;;;;;;-1.46;100.00;101298.81;5083276;28;20028;-69
2024/01/10 00:03:55;;;;;;;3.85;2.03;;;;;;;-1.43;100.00;101281.50;5090662;28;20114;-69
2024/01/10 00:06:20;;;;;;;4.28;2.20;;;;;;;-1.55;100.00;101278.50;5091541;28;20565;-69
2024/01/10 00:08:46;;;;;;;4.05;2.20;;;;;;;-1.91;100.00;101231.34;5090606;28;20111;-69
2024/01/10 00:11:11;;;;;;;4.15;2.33;;;;;;;-1.66;100.00;101263.09;5091037;28;20048;-69
2024/01/10 00:13:37;;;;;;;4.80;2.20;;;;;;;-1.88;100.00;101241.44;5091160;28;20111;-70
2024/01/10 00:16:02;;;;;;;4.72;2.47;;;;;;;-1.79;100.00;101279.22;5091402;28;20430;-70
2024/01/10 00:18:28;;;;;;;4.38;2.20;;;;;;;-1.52;100.00;101288.59;5091374;28;20034;-72
2024/01/10 00:20:53;;;;;;;5.63;2.55;;;;;;;-1.70;100.00;101262.94;5091044;28;20032;-70
2024/01/10 00:23:20;;;;;;;4.13;2.42;;;;;;;-1.47;100.00;101309.59;5091096;28;20466;-70
2024/01/10 00:25:46;;;;;;;3.08;2.10;;;;;;;-1.70;100.00;101263.75;5072588;28;20036;-70
2024/01/10 00:28:14;;;;;;;3.90;2.28;;;;;;;-1.93;100.00;101254.47;5091857;28;20052;-70
2024/01/10 00:30:39;;;;;;;3.72;1.90;;;;;;;-1.79;100.00;101263.41;5072421;28;20024;-70
2024/01/10 00:33:05;;;;;;;3.00;1.83;;;;;;;-1.74;100.00;101335.84;5089096;28;20016;-69
2024/01/10 00:35:31;;;;;;;4.82;2.10;;;;;;;-1.60;100.00;101330.66;5090953;28;20035;-72
2024/01/10 00:37:57;;;;;;;4.95;2.35;;;;;;;-1.58;100.00;101318.25;5072496;28;20498;-70
2024/01/10 00:40:23;;;;;;;4.28;2.40;;;;;;;-1.90;100.00;101282.88;5071957;28;20082;-70
2024/01/10 00:42:48;;;;;;;3.70;1.98;;;;;;;-1.74;100.00;101324.22;5090625;28;20097;-69
2024/01/10 00:45:14;;;;;;;3.72;2.42;;;;;;;-1.96;100.00;101295.06;5090465;28;20024;-71
2024/01/10 00:47:39;;;;;;;3.83;2.30;;;;;;;-1.58;100.00;101333.22;5072445;28;20032;-70
2024/01/10 00:50:05;;;;;;;4.57;2.45;;;;;;;-2.00;100.00;101272.47;5091009;28;20024;-70
2024/01/10 00:52:35;;;;;;;3.88;2.10;;;;;;;-1.80;100.00;101342.28;5071816;28;20035;-70
2024/01/10 00:55:00;;;;;;;5.07;1.98;;;;;;;-2.03;100.00;101288.13;5089765;28;20498;-70
2024/01/10 00:57:26;;;;;;;4.13;2.30;;;;;;;-2.00;100.00;101288.25;5072146;28;20040;-70
2024/01/10 00:59:51;;;;;;;3.58;2.10;;;;;;;-1.79;100.00;101368.03;5090058;28;20047;-71
2024/01/10 01:02:17;;;;;;;4.22;2.03;;;;;;;-1.89;100.00;101351.84;5071491;28;20475;-69
2024/01/10 01:04:42;;;;;;;3.38;1.95;;;;;;;-1.92;100.00;101336.75;5090025;28;20474;-70
2024/01/10 01:07:08;;;;;;;3.97;2.00;;;;;;;-1.78;100.00;101365.63;5090359;28;20086;-70
2024/01/10 01:09:34;;;;;;;4.38;1.88;;;;;;;-2.40;100.00;101302.22;5089155;28;20032;-71
2024/01/10 01:11:59;;;;;;;3.42;1.98;;;;;;;-2.12;100.00;101372.38;5071870;28;20101;-71
2024/01/10 01:14:25;;;;;;;3.55;2.20;;;;;;;-2.42;100.00;101326.19;5082365;28;20461;-69
2024/01/10 01:16:50;;;;;;;5.20;2.28;;;;;;;-2.42;100.00;101326.19;5089564;28;20051;-69
2024/01/10 01:19:15;;;;;;;4.13;2.20;;;;;;;-2.42;100.00;101332.81;5090009;28;20028;-72
2024/01/10 01:21:42;;;;;;;3.78;1.92;;;;;;;-2.40;100.00;101324.63;5089393;28;20058;-71
2024/01/10 01:24:07;;;;;;;3.13;1.90;;;;;;;-2.27;100.00;101389.13;5072035;28;20048;-69
2024/01/10 01:26:33;;;;;;;3.13;1.90;;;;;;;-2.58;100.00;101322.91;5090131;28;20020;-69
2024/01/10 01:28:58;;;;;;;5.97;2.38;;;;;;;-2.22;100.00;101356.97;5090082;28;20115;-70
2024/01/10 01:31:24;;;;;;;2.97;1.70;;;;;;;-2.74;100.00;101321.38;5104998;28;20107;-69
2024/01/10 01:33:49;;;;;;;4.15;2.13;;;;;;;-2.41;100.00;101367.72;5089670;28;20043;-69
2024/01/10 01:36:15;;;;;;;3.53;2.28;;;;;;;-2.76;100.00;101298.91;5070777;28;20498;-70
2024/01/10 01:38:40;;;;;;;3.92;1.90;;;;;;;-2.48;100.00;101373.19;5089258;28;20046;-68
2024/01/10 01:41:06;;;;;;;4.25;2.05;;;;;;;-2.52;100.00;101328.19;5070968;28;20410;-70
2024/01/10 01:43:32;;;;;;;4.07;1.90;;;;;;;-2.62;100.00;101309.50;5071186;28;20028;-71
2024/01/10 01:45:58;;;;;;;3.70;2.03;;;;;;;-2.67;100.00;101309.28;5070813;28;20101;-71
2024/01/10 01:48:27;;;;;;;5.65;2.30;;;;;;;-2.27;100.00;101374.19;5071014;28;20020;-69
2024/01/10 01:50:56;;;;;;;3.65;1.90;;;;;;;-2.28;100.00;101361.66;5089862;28;20032;-69
2024/01/10 01:53:22;;;;;;;4.00;2.30;;;;;;;-2.39;100.00;101360.31;5076771;28;20059;-69
2024/01/10 01:55:48;;;;;;;4.03;2.05;;;;;;;-2.20;100.00;101360.38;5097232;28;20471;-69
2024/01/10 01:58:14;;;;;;;3.63;1.95;;;;;;;-2.23;100.00;101368.56;5089316;28;20151;-69
2024/01/10 02:00:43;;;;;;;4.78;2.10;;;;;;;-2.81;100.00;101296.97;5070714;28;20603;-70
2024/01/10 02:03:09;;;;;;;3.25;1.83;;;;;;;-2.37;100.00;101378.66;5070802;28;20032;-70
2024/01/10 02:05:36;;;;;;;2.97;1.77;;;;;;;-2.32;100.00;101388.06;5089051;28;20102;-71
2024/01/10 02:08:01;;;;;;;2.95;1.92;;;;;;;-2.81;100.00;101329.31;5070843;28;20028;-70
2024/01/10 02:10:27;;;;;;;5.45;1.80;;;;;;;-2.88;100.00;101312.41;5071294;28;20031;-70
2024/01/10 02:12:52;;;;;;;3.95;2.05;;;;;;;-2.27;100.00;101371.69;5070080;28;20036;-70
2024/01/10 02:15:18;;;;;;;2.50;1.63;;;;;;;-2.38;100.00;101355.44;5070791;28;20032;-70
2024/01/10 02:17:43;;;;;;;3.53;1.80;;;;;;;-2.64;100.00;101313.56;5070735;28;20032;-69
2024/01/10 02:20:14;;;;;;;2.70;1.42;;;;;;;-2.37;100.00;101357.13;5088311;28;20058;-69
2024/01/10 02:22:40;;;;;;;3.03;1.52;;;;;;;-2.71;100.00;101290.00;5068777;28;20028;-70
2024/01/10 02:25:07;;;;;;;2.42;1.40;;;;;;;-2.53;100.00;101294.97;5070932;28;20092;-69
2024/01/10 02:27:35;;;;;;;5.20;1.88;;;;;;;-2.22;100.00;101335.38;5089144;28;20032;-71
2024/01/10 02:30:02;;;;;;;2.63;1.58;;;;;;;-2.61;100.00;101323.63;5088353;28;20032;-70
2024/01/10 02:32:29;;;;;;;2.53;1.48;;;;;;;-2.64;100.00;101278.72;5088534;28;20024;-69
2024/01/10 02:34:54;;;;;;;3.08;1.60;;;;;;;-2.34;100.00;101349.81;5087185;28;20039;-70
2024/01/10 02:37:20;;;;;;;3.88;1.70;;;;;;;-2.22;100.00;101347.00;5089064;28;20027;-70
2024/01/10 02:39:45;;;;;;;3.00;1.77;;;;;;;-2.27;100.00;101321.03;5069733;28;20036;-70
2024/01/10 02:42:11;;;;;;;3.33;1.60;;;;;;;-2.30;100.00;101316.78;5088074;28;20657;-71
2024/01/10 02:44:36;;;;;;;2.30;1.38;;;;;;;-2.74;100.00;101286.53;5070373;28;20036;-70
2024/01/10 02:47:02;;;;;;;2.80;1.50;;;;;;;-2.65;100.00;101264.56;5088479;28;20048;-72
2024/01/10 02:49:27;;;;;;;2.47;1.50;;;;;;;-2.41;100.00;101319.56;5087363;28;20101;-70
2024/01/10 02:51:52;;;;;;;2.60;1.50;;;;;;;-2.45;100.00;101303.63;5088450;28;20038;-69
2024/01/10 02:54:18;;;;;;;2.08;1.23;;;;;;;-2.47;100.00;101291.91;5088073;28;20034;-70
2024/01/10 02:56:43;;;;;;;2.30;1.30;;;;;;;-2.46;100.00;101311.03;5069561;28;20482;-70
2024/01/10 02:59:09;;;;;;;4.05;1.40;;;;;;;-2.42;100.00;101321.22;5068376;28;20035;-70
2024/01/10 03:01:34;;;;;;;2.97;1.13;;;;;;;-2.58;100.00;101325.41;5087914;28;20472;-71
2024/01/10 03:03:59;;;;;;;3.72;1.70;;;;;;;-2.57;100.00;101319.66;5087781;28;20028;-72
2024/01/10 03:06:25;;;;;;;3.08;1.40;;;;;;;-2.79;100.00;101278.00;5087610;28;20131;-70
2024/01/10 03:08:51;;;;;;;1.48;1.02;;;;;;;-2.61;100.00;101332.75;5069567;28;20028;-70
2024/01/10 03:11:16;;;;;;;3.72;1.30;;;;;;;-2.56;100.00;101339.63;5084020;28;20032;-73
2024/01/10 03:13:45;;;;;;;3.85;1.33;;;;;;;-2.40;100.00;101349.53;5073594;28;20499;-71
2024/01/10 03:16:11;;;;;;;3.58;1.45;;;;;;;-2.42;100.00;101361.03;5077095;28;20037;-70
2024/01/10 03:18:36;;;;;;;2.55;1.40;;;;;;;-2.54;100.00;101329.75;5073995;28;20503;-71
2024/01/10 03:21:01;;;;;;;2.55;1.40;;;;;;;-2.49;100.00;101358.16;5075330;28;20035;-71
2024/01/10 03:23:27;;;;;;;3.90;2.03;;;;;;;-2.59;100.00;101358.56;5075072;28;20414;-70
2024/01/10 03:25:53;;;;;;;2.53;1.58;;;;;;;-2.78;100.00;101360.19;5079255;28;20028;-70
2024/01/10 03:28:18;;;;;;;3.03;1.38;;;;;;;-2.76;100.00;101311.34;5077025;28;20024;-71
2024/01/10 03:30:44;;;;;;;2.75;1.40;;;;;;;-2.37;100.00;101346.28;5055820;28;20028;-70
2024/01/10 03:33:10;;;;;;;2.55;1.10;;;;;;;-2.94;100.00;101292.22;5075336;28;20024;-71
2024/01/10 03:35:35;;;;;;;3.10;1.67;;;;;;;-2.65;100.00;101327.63;5077866;28;20121;-70
2024/01/10 03:38:00;;;;;;;2.72;1.38;;;;;;;-2.78;100.00;101312.06;5071604;28;20083;-71
2024/01/10 03:40:26;;;;;;;3.08;1.45;;;;;;;-2.77;100.00;101309.63;5079135;28;20035;-70
2024/01/10 03:42:51;;;;;;;2.67;1.23;;;;;;;-3.03;100.00;101257.81;5078479;28;20115;-71
2024/01/10 03:45:20;;;;;;;1.95;1.08;;;;;;;-3.29;100.00;101190.28;5075289;28;20430;-69
2024/01/10 03:47:49;;;;;;;2.63;1.20;;;;;;;-2.74;100.00;101272.47;5076896;28;20032;-70
2024/01/10 03:50:16;;;;;;;3.53;1.40;;;;;;;-2.72;100.00;101242.69;5052421;28;20047;-70
2024/01/10 03:52:42;;;;;;;2.40;1.30;;;;;;;-2.69;100.00;101240.31;5077690;28;20140;-69
2024/01/10 03:55:08;;;;;;;1.80;1.02;;;;;;;-2.63;100.00;101235.63;5053485;28;20032;-70
2024/01/10 03:57:34;;;;;;;1.83;1.10;;;;;;;-2.66;100.00;101175.78;5072377;28;20016;-72
2024/01/10 04:00:00;;;;;;;1.75;1.10;;;;;;;-2.85;100.00;101176.59;5078044;28;20017;-71
2024/01/10 04:02:27;;;;;;;3.65;0.90;;;;;;;-2.40;100.00;101221.72;5055521;28;20082;-73
2024/01/10 04:04:53;;;;;;;1.73;0.93;;;;;;;-2.46;100.00;101213.97;5077220;28;20035;-70
2024/01/10 04:07:19;;;;;;;2.53;0.93;;;;;;;-2.44;100.00;101203.31;5077036;28;20032;-70
2024/01/10 04:09:44;;;;;;;2.30;0.90;;;;;;;-2.53;100.00;101183.00;5070985;28;20083;-71
2024/01/10 04:12:10;;;;;;;1.77;1.05;;;;;;;-2.76;100.00;101157.13;5079492;28;20090;-70
2024/01/10 04:14:35;;;;;;;1.52;0.75;;;;;;;-2.34;100.00;101184.66;5106361;28;20398;-70
2024/01/10 04:17:01;;;;;;;2.88;1.20;;;;;;;-2.67;100.00;101164.13;5086306;28;20258;-71
2024/01/10 04:19:27;;;;;;;2.05;1.00;;;;;;;-2.75;100.00;101120.63;5085677;28;20038;-69
2024/01/10 04:21:52;;;;;;;2.05;1.13;;;;;;;-2.68;100.00;101128.47;5086471;28;20375;-71
2024/01/10 04:24:18;;;;;;;2.33;1.55;;;;;;;-2.46;100.00;101137.69;5069125;28;20111;-73
2024/01/10 04:26:44;;;;;;;4.15;1.88;;;;;;;-1.35;100.00;101151.38;5086686;28;20024;-73
2024/01/10 04:29:10;;;;;;;2.47;1.00;;;;;;;-2.03;100.00;101176.03;5086064;28;20032;-70
2024/01/10 04:31:43;;;;;;;2.95;1.30;;;;;;;-2.23;100.00;101107.13;5082456;28;20415;-70
2024/01/10 04:34:08;;;;;;;3.67;1.67;;;;;;;-1.65;100.00;101154.31;5086271;28;20035;-72
2024/01/10 04:36:34;;;;;;;3.33;1.38;;;;;;;-2.51;100.00;101126.66;5085660;28;20406;-70
2024/01/10 04:38:59;;;;;;;2.50;1.52;;;;;;;-2.79;100.00;101098.91;5085355;28;20460;-70
2024/01/10 04:41:26;;;;;;;3.50;1.65;;;;;;;-2.49;100.00;101144.16;5085877;28;20070;-70
2024/01/10 04:43:52;;;;;;;3.10;1.58;;;;;;;-2.84;100.00;101096.25;5085784;28;20062;-75
2024/01/10 04:46:17;;;;;;;3.60;1.90;;;;;;;-2.95;100.00;101056.78;5084786;28;20110;-70
2024/01/10 04:48:42;;;;;;;3.45;1.40;;;;;;;-2.41;100.00;101147.81;4733092;28;10000440;-73
2024/01/10 04:51:08;;;;;;;5.18;1.92;;;;;;;-2.63;100.00;101060.63;5087587;28;20035;-69
2024/01/10 04:53:33;;;;;;;3.60;1.27;;;;;;;-2.33;100.00;101127.44;5087771;28;20039;-70
2024/01/10 04:55:59;;;;;;;1.98;1.13;;;;;;;-2.24;100.00;101160.19;5087210;28;20032;-73
2024/01/10 04:58:25;;;;;;;3.70;1.50;;;;;;;-2.74;100.00;101088.38;5087392;28;20028;-72
2024/01/10 05:00:50;;;;;;;3.08;1.63;;;;;;;-2.61;100.00;101108.81;5087048;28;20115;-72
2024/01/10 05:03:15;;;;;;;3.53;1.48;;;;;;;-2.49;100.00;101146.63;5086598;28;20031;-72
2024/01/10 05:05:41;;;;;;;2.97;1.25;;;;;;;-2.67;100.00;101144.22;5087150;28;20504;-71
2024/01/10 05:08:06;;;;;;;3.85;1.40;;;;;;;-2.93;100.00;101095.00;5089548;28;20036;-69
2024/01/10 05:10:32;;;;;;;2.85;1.27;;;;;;;-2.46;100.00;101131.84;5073689;28;20509;-71
2024/01/10 05:12:57;;;;;;;3.28;1.60;;;;;;;-2.47;100.00;101157.50;5087554;28;20052;-73
2024/01/10 05:15:23;;;;;;;3.50;1.80;;;;;;;-2.60;100.00;101153.66;5074771;28;20554;-69
2024/01/10 05:17:48;;;;;;;4.55;2.45;;;;;;;-2.65;100.00;101146.00;5087227;28;20034;-70
2024/01/10 05:20:14;;;;;;;4.72;2.60;;;;;;;-2.72;100.00;101144.03;5075087;28;20570;-73
2024/01/10 05:22:40;;;;;;;4.60;2.55;;;;;;;-2.52;100.00;101154.00;5072365;28;20111;-73
2024/01/10 05:25:06;;;;;;;5.47;2.78;;;;;;;-2.66;100.00;101165.84;5086526;28;20077;-70
2024/01/10 05:27:32;;;;;;;4.57;2.20;;;;;;;-2.65;100.00;101155.09;5070283;28;20545;-70
2024/01/10 05:29:59;;;;;;;5.53;2.60;;;;;;;-2.57;100.00;101111.47;5087699;28;20040;-73
2024/01/10 05:32:25;;;;;;;4.78;2.60;;;;;;;-2.84;100.00;101105.31;5089190;28;21490;-70
2024/01/10 05:34:50;;;;;;;6.07;2.10;;;;;;;-2.23;100.00;101133.66;5086815;28;20063;-71
2024/01/10 05:37:16;;;;;;;4.35;2.22;;;;;;;-2.44;100.00;101133.63;5088265;28;20085;-71
2024/01/10 05:39:45;;;;;;;7.00;2.92;;;;;;;-2.40;100.00;101145.41;5077664;28;20036;-71
2024/01/10 05:42:11;;;;;;;9.00;4.40;;;;;;;-2.24;100.00;101135.28;5075757;28;20031;-72
2024/01/10 05:44:36;;;;;;;7.95;4.30;;;;;;;-2.43;100.00;101085.53;5090383;28;20028;-70
2024/01/10 05:47:02;;;;;;;8.70;3.83;;;;;;;-2.20;100.00;101099.78;5071816;28;20490;-70
2024/01/10 05:49:28;;;;;;;5.82;3.13;;;;;;;-2.32;100.00;101116.72;5090208;28;20036;-69
2024/01/10 05:51:54;;;;;;;5.00;3.20;;;;;;;-2.13;100.00;101100.88;5070832;28;20040;-68
2024/01/10 05:54:19;;;;;;;5.95;3.97;;;;;;;-2.25;100.00;101108.72;5089332;28;20394;-69
2024/01/10 05:56:44;;;;;;;6.38;3.40;;;;;;;-2.57;100.00;101130.56;5089458;28;20059;-69
2024/01/10 05:59:13;;;;;;;7.15;3.17;;;;;;;-2.39;100.00;101137.16;5088926;28;20028;-74
2024/01/10 06:01:43;;;;;;;4.93;2.33;;;;;;;-2.42;100.00;101127.06;5090123;28;20486;-70
2024/01/10 06:04:08;;;;;;;7.03;3.97;;;;;;;-2.75;100.00;101083.31;5087750;28;20043;-70
2024/01/10 06:06:34;;;;;;;8.07;4.40;;;;;;;-2.29;100.00;101077.00;5071679;28;20042;-72
2024/01/10 06:09:00;;;;;;;19.15;9.55;;;;;;;-2.51;100.00;101128.28;5089535;28;20024;-70
2024/01/10 06:11:25;;;;;;;31.83;14.27;;;;;;;-2.42;100.00;101099.69;5088899;28;20040;-72
2024/01/10 06:13:51;;;;;;;23.55;11.52;;;;;;;-2.51;100.00;101105.91;5089145;28;20039;-71
2024/01/10 06:16:16;;;;;;;25.67;12.48;;;;;;;-2.18;100.00;101140.53;5088893;28;20036;-70
2024/01/10 06:18:42;;;;;;;21.35;10.35;;;;;;;-2.51;100.00;101058.63;5088428;28;20031;-71
2024/01/10 06:21:08;;;;;;;12.40;7.40;;;;;;;-2.50;100.00;101087.72;5071006;28;20379;-73
2024/01/10 06:23:33;;;;;;;11.43;5.82;;;;;;;-2.80;100.00;101054.94;5070146;28;20101;-72
2024/01/10 06:25:59;;;;;;;9.88;5.15;;;;;;;-2.04;100.00;101102.09;5088264;28;20115;-70
2024/01/10 06:28:24;;;;;;;11.23;4.85;;;;;;;-2.57;100.00;101002.00;5070607;28;20046;-70
2024/01/10 06:30:50;;;;;;;6.95;3.40;;;;;;;-2.25;100.00;101048.09;5070745;28;20039;-70
2024/01/10 06:33:15;;;;;;;8.48;3.78;;;;;;;-2.36;100.00;101077.56;5087573;28;20110;-70
2024/01/10 06:35:44;;;;;;;36.65;14.20;;;;;;;-2.15;100.00;101065.97;5089383;28;20038;-72
2024/01/10 06:38:10;;;;;;;45.67;22.25;;;;;;;-2.01;100.00;101057.41;5068983;28;20109;-72
2024/01/10 06:40:36;;;;;;;42.20;22.05;;;;;;;-2.40;100.00;101022.59;5088430;28;20052;-69
2024/01/10 06:43:02;;;;;;;10.00;5.68;;;;;;;-2.13;100.00;101061.91;5069627;28;20609;-72
2024/01/10 06:45:28;;;;;;;15.60;7.80;;;;;;;-2.15;100.00;101050.16;5088920;28;20103;-72
2024/01/10 06:47:54;;;;;;;8.90;5.20;;;;;;;-2.20;100.00;101062.44;5070136;28;20055;-70
2024/01/10 06:50:20;;;;;;;10.20;5.40;;;;;;;-1.76;100.00;101032.66;5088776;28;20024;-70
2024/01/10 06:52:45;;;;;;;9.10;5.20;;;;;;;-2.49;100.00;100997.31;5088598;28;21652;-70
2024/01/10 06:55:12;;;;;;;11.13;6.30;;;;;;;-1.92;100.00;100994.63;5069378;28;20080;-72
2024/01/10 06:57:37;;;;;;;11.32;6.00;;;;;;;-2.17;100.00;101016.88;5087907;28;20107;-70
2024/01/10 07:00:06;;;;;;;13.55;6.32;;;;;;;-1.59;100.00;101024.97;5088289;28;20103;-73
2024/01/10 07:02:32;;;;;;;10.93;5.97;;;;;;;-1.91;100.00;101026.22;5087280;28;20034;-70
2024/01/10 07:04:58;;;;;;;12.57;7.60;;;;;;;-2.08;100.00;100995.69;5087945;28;20024;-71
2024/01/10 07:07:23;;;;;;;9.70;6.40;;;;;;;-2.21;100.00;100962.78;5069509;28;20410;-71
2024/01/10 07:09:48;;;;;;;19.17;11.27;;;;;;;-2.50;100.00;100925.97;5088143;28;20035;-70
2024/01/10 07:12:14;;;;;;;15.40;9.27;;;;;;;-1.71;100.00;101012.91;5069027;28;20097;-71
2024/01/10 07:14:39;;;;;;;12.98;6.40;;;;;;;-2.08;100.00;100950.84;5088279;28;20035;-70
2024/01/10 07:17:05;;;;;;;15.07;8.93;;;;;;;-1.84;100.00;100940.97;5069398;28;20035;-70
2024/01/10 07:19:31;;;;;;;11.07;5.90;;;;;;;-1.77;100.00;100993.59;5087679;28;20032;-74
2024/01/10 07:21:56;;;;;;;9.50;4.32;;;;;;;-1.78;100.00;100974.44;5068996;28;23449;-70
2024/01/10 07:24:22;;;;;;;8.63;4.38;;;;;;;-1.82;100.00;100994.19;5069508;28;20088;-71
2024/01/10 07:26:47;;;;;;;10.07;5.57;;;;;;;-1.50;100.00;100972.94;5088187;28;20035;-70
2024/01/10 07:29:13;;;;;;;8.10;4.22;;;;;;;-2.13;100.00;100894.22;5088096;28;20032;-71
2024/01/10 07:31:39;;;;;;;5.50;3.60;;;;;;;-1.47;100.00;100983.03;5087681;28;20032;-71
2024/01/10 07:34:07;;;;;;;8.93;4.18;;;;;;;-1.54;100.00;100939.59;5086473;28;20039;-74
2024/01/10 07:36:33;;;;;;;7.85;3.45;;;;;;;-1.67;100.00;100939.09;5088150;28;20039;-70
2024/01/10 07:39:02;;;;;;;8.50;4.30;;;;;;;-1.64;100.00;100904.34;5068052;28;20504;-71
2024/01/10 07:41:27;;;;;;;7.60;4.60;;;;;;;-1.64;100.00;100929.25;5082209;28;20165;-81
2024/01/10 07:43:53;;;;;;;12.35;5.03;;;;;;;-1.12;100.00;100921.16;5086882;28;20425;-70
2024/01/10 07:46:18;;;;;;;9.98;5.28;;;;;;;-1.41;100.00;100861.97;5087731;28;20032;-71
2024/01/10 07:48:43;;;;;;;19.38;9.60;;;;;;;-1.27;100.00;100914.78;5087766;28;20032;-70
2024/01/10 07:51:09;;;;;;;18.60;10.23;;;;;;;-1.56;100.00;100928.72;5086785;28;20027;-72
2024/01/10 07:53:36;;;;;;;18.77;8.95;;;;;;;-1.46;100.00;100927.41;5087589;28;20024;-72
2024/01/10 07:56:01;;;;;;;13.30;8.07;;;;;;;-1.58;100.00;100909.50;5087556;28;20016;-72
2024/01/10 07:58:27;;;;;;;8.88;6.15;;;;;;;-1.72;100.00;100886.59;5086155;28;20035;-71
2024/01/10 08:00:53;;;;;;;10.52;5.95;;;;;;;-1.79;100.00;100839.84;5087231;28;20039;-70
2024/01/10 08:03:19;;;;;;;11.73;7.72;;;;;;;-1.58;100.00;100894.56;5087100;28;20028;-71
2024/01/10 08:05:46;;;;;;;8.77;4.55;;;;;;;-1.50;100.00;100891.53;5087265;28;20097;-70
2024/01/10 08:08:13;;;;;;;7.57;4.70;;;;;;;-1.87;100.00;100834.59;5087238;28;20042;-70
2024/01/10 08:10:39;;;;;;;8.57;5.55;;;;;;;-1.65;100.00;100875.22;5067749;28;20024;-70
2024/01/10 08:13:05;;;;;;;11.50;5.50;;;;;;;-1.62;100.00;100867.88;5087172;28;20534;-72
2024/01/10 08:15:34;;;;;;;8.63;5.38;;;;;;;-1.50;100.00;100876.59;5069231;28;20043;-70
2024/01/10 08:18:00;;;;;;;9.73;6.25;;;;;;;-1.52;100.00;100870.72;5087247;28;20024;-70
2024/01/10 08:20:26;;;;;;;8.85;6.40;;;;;;;-1.33;100.00;100850.59;5087534;28;20052;-72
2024/01/10 08:22:51;;;;;;;14.18;9.05;;;;;;;-1.44;100.00;100813.63;5069483;28;20103;-71
2024/01/10 08:25:18;;;;;;;26.52;16.85;;;;;;;-1.45;100.00;100837.72;5090924;28;20024;-70
2024/01/10 08:27:45;;;;;;;21.20;14.93;;;;;;;-1.20;100.00;100856.84;5090874;28;20478;-70
2024/01/10 08:30:11;;;;;;;20.67;14.35;;;;;;;-1.78;100.00;100781.75;5073637;28;20038;-69
2024/01/10 08:32:36;;;;;;;21.88;15.65;;;;;;;-1.48;100.00;100836.75;5091462;28;20107;-71
2024/01/10 08:35:07;;;;;;;24.23;16.27;;;;;;;-1.83;100.00;100826.44;5090807;28;20043;-69
2024/01/10 08:37:33;;;;;;;12.98;9.10;;;;;;;-1.72;100.00;100853.38;5090633;28;20052;-70
2024/01/10 08:40:00;;;;;;;16.08;8.82;;;;;;;-1.70;100.00;100846.81;5072545;28;20118;-70
2024/01/10 08:42:25;;;;;;;11.98;7.80;;;;;;;-1.34;100.00;100836.44;5091274;28;20040;-72
2024/01/10 08:44:50;;;;;;;12.15;7.00;;;;;;;-1.60;100.00;100784.00;5072091;28;20036;-70
2024/01/10 08:47:16;;;;;;;10.73;6.82;;;;;;;-1.55;100.00;100772.56;5089289;28;20055;-69
2024/01/10 08:49:41;;;;;;;11.73;7.65;;;;;;;-1.37;100.00;100780.66;5090160;28;20059;-70
2024/01/10 08:52:08;;;;;;;19.33;12.27;;;;;;;-0.95;100.00;100772.00;5105642;28;20122;-76
2024/01/10 08:54:33;;;;;;;18.85;13.82;;;;;;;-1.27;100.00;100767.69;5071430;28;20042;-70
2024/01/10 08:57:00;;;;;;;20.92;11.57;;;;;;;-0.70;100.00;100749.50;5090145;28;20417;-70
2024/01/10 08:59:27;;;;;;;44.67;14.65;;;;;;;-1.03;100.00;100701.09;5089624;28;20036;-73
2024/01/10 09:01:53;;;;;;;15.93;7.45;;;;;;;-1.12;100.00;100721.63;5090358;28;20058;-71
2024/01/10 09:04:19;;;;;;;9.50;5.63;;;;;;;-1.26;100.00;100739.44;5089943;28;20494;-71
2024/01/10 09:06:45;;;;;;;11.23;9.30;;;;;;;-1.18;100.00;100718.94;5071826;28;20039;-71
2024/01/10 09:09:12;;;;;;;16.38;10.75;;;;;;;-0.73;100.00;100716.94;5089888;28;20036;-70
2024/01/10 09:11:38;;;;;;;20.95;13.55;;;;;;;-1.45;100.00;100677.34;5089436;28;20032;-70
2024/01/10 09:14:04;;;;;;;29.38;16.25;;;;;;;-0.84;100.00;100699.97;5090444;28;20031;-70
2024/01/10 09:16:29;;;;;;;23.38;17.02;;;;;;;-0.75;100.00;100690.28;5089330;28;22404;-70
2024/01/10 09:18:57;;;;;;;19.98;13.57;;;;;;;-0.69;100.00;100681.31;5089519;28;20031;-70
2024/01/10 09:21:23;;;;;;;13.27;9.00;;;;;;;-0.85;100.00;100693.31;5071422;28;20518;-72
2024/01/10 09:23:50;;;;;;;13.82;9.75;;;;;;;-1.50;100.00;100634.81;5090260;28;20035;-73
2024/01/10 09:26:17;;;;;;;14.25;8.13;;;;;;;-0.61;100.00;100674.88;5089843;28;20051;-70
2024/01/10 09:28:43;;;;;;;20.45;9.50;;;;;;;-0.77;100.00;100675.25;5073678;28;20023;-69
2024/01/10 09:31:08;;;;;;;27.52;18.63;;;;;;;-0.78;100.00;100661.09;5077090;28;20034;-70
2024/01/10 09:33:34;;;;;;;18.48;13.13;;;;;;;-0.72;100.00;100620.47;5092871;28;20414;-70
2024/01/10 09:35:59;;;;;;;13.43;8.80;;;;;;;-0.66;100.00;100660.59;5089496;28;20138;-69
2024/01/10 09:38:24;;;;;;;8.65;4.95;;;;;;;-0.47;100.00;100647.78;5071184;28;20039;-69
2024/01/10 09:40:56;;;;;;;13.32;8.30;;;;;;;-0.84;100.00;100630.97;5090567;28;20036;-69
2024/01/10 09:43:22;;;;;;;11.75;7.15;;;;;;;-0.52;100.00;100637.69;5071436;28;20489;-69
2024/01/10 09:45:49;;;;;;;12.57;8.75;;;;;;;-0.63;100.00;100631.56;5071649;28;20040;-70
2024/01/10 09:48:15;;;;;;;12.43;7.95;;;;;;;-0.48;100.00;100616.16;5071253;28;20474;-70
2024/01/10 09:50:41;;;;;;;13.20;7.65;;;;;;;-1.32;100.00;100559.75;5089293;28;20024;-70
2024/01/10 09:53:07;;;;;;;14.60;7.45;;;;;;;-0.70;100.00;100572.31;5089913;28;20421;-69
2024/01/10 09:55:37;;;;;;;28.42;12.95;;;;;;;-0.10;100.00;100623.81;5089654;28;20513;-69
2024/01/10 09:58:06;;;;;;;15.18;7.25;;;;;;;-0.32;100.00;100559.13;5089208;28;20472;-69
2024/01/10 10:00:35;;;;;;;12.27;7.18;;;;;;;-0.14;100.00;100594.56;5071210;28;20056;-69
2024/01/10 10:03:02;;;;;;;11.80;7.50;;;;;;;-0.51;100.00;100517.06;5089065;28;20035;-69
2024/01/10 10:05:29;;;;;;;16.70;8.77;;;;;;;-0.28;100.00;100562.56;5089168;28;20815;-68
2024/01/10 10:07:54;;;;;;;15.95;7.90;;;;;;;-0.43;100.00;100497.25;5089134;28;20059;-69
2024/01/10 10:10:20;;;;;;;14.63;8.50;;;;;;;0.18;100.00;100585.34;5088076;28;20054;-69
2024/01/10 10:12:52;;;;;;;19.15;9.68;;;;;;;0.71;100.00;100584.03;5089090;28;20130;-70
2024/01/10 10:15:21;;;;;;;13.82;8.38;;;;;;;0.36;100.00;100542.41;4736201;28;9999827;-73
2024/01/10 10:17:48;;;;;;;21.52;10.32;;;;;;;0.42;100.00;100595.03;5087590;28;20042;-70
2024/01/10 10:20:25;;;;;;;43.72;29.20;;;;;;;-0.37;100.00;100525.72;5086910;28;20032;-70
2024/01/10 10:23:01;;;;;;;24.48;18.83;;;;;;;0.10;100.00;100581.81;5086830;28;20105;-71
2024/01/10 10:25:32;;;;;;;17.42;11.45;;;;;;;0.40;100.00;100572.50;5072975;28;20078;-72
2024/01/10 10:27:58;;;;;;;15.98;8.52;;;;;;;0.51;100.00;100553.59;5085983;28;20020;-72
2024/01/10 10:30:26;;;;;;;15.48;11.13;;;;;;;0.63;100.00;100565.53;5086704;28;20032;-71
2024/01/10 10:32:57;;;;;;;11.27;8.20;;;;;;;0.62;100.00;100549.66;5072744;28;20032;-71
2024/01/10 10:35:23;;;;;;;15.82;10.85;;;;;;;0.92;100.00;100556.09;5084543;28;20067;-73
2024/01/10 10:37:50;;;;;;;16.60;10.25;;;;;;;0.59;100.00;100518.75;5086237;28;20043;-71
2024/01/10 10:40:16;;;;;;;14.77;9.38;;;;;;;1.03;100.00;100542.97;5086475;28;20034;-71
2024/01/10 10:42:46;;;;;;;13.45;7.25;;;;;;;0.56;100.00;100532.03;5067805;28;20036;-71
2024/01/10 10:45:15;;;;;;;22.00;14.15;;;;;;;0.59;100.00;100528.75;5087195;28;20016;-70
2024/01/10 10:47:43;;;;;;;36.97;20.73;;;;;;;0.50;100.00;100484.38;5069848;28;20446;-72
2024/01/10 10:50:25;;;;;;;24.30;13.98;;;;;;;1.17;100.00;100465.66;5088605;28;20039;-70
2024/01/10 10:52:50;;;;;;;;;;;;;;;0.93;100.00;100513.59;5086372;28;20446;-71
2024/01/10 10:55:17;;;;;;;16.73;11.57;;;;;;;0.57;100.00;100466.22;5070082;28;19916;-71
2024/01/10 10:57:47;;;;;;;15.63;11.55;;;;;;;0.39;100.00;100452.47;5088971;28;20040;-71
2024/01/10 11:00:18;;;;;;;19.73;12.10;;;;;;;0.89;100.00;100435.13;5088163;28;20111;-70
2024/01/10 11:02:44;;;;;;;;;;;;;;;1.09;100.00;100493.03;5088293;28;20024;-70
2024/01/10 11:05:10;;;;;;;19.52;13.68;;;;;;;1.27;100.00;100493.38;5070364;28;19911;-72
2024/01/10 11:07:40;;;;;;;15.60;6.63;;;;;;;1.15;100.00;100485.63;5088275;28;20031;-71
2024/01/10 11:10:21;;;;;;;16.92;7.18;;;;;;;0.58;100.00;100432.88;5088670;28;20081;-70